AKDT,Max TemperatureF,Mean TemperatureF,Min TemperatureF,Max Dew PointF,MeanDew PointF,Min DewpointF,Max Humidity, Mean Humidity, Min Humidity, Max Sea Level PressureIn, Mean Sea Level PressureIn, Min Sea Level PressureIn, Max VisibilityMiles, Mean VisibilityMiles, Min VisibilityMiles, Max Wind SpeedMPH, Mean Wind SpeedMPH, Max Gust SpeedMPH,PrecipitationIn, CloudCover, Events, WindDirDegrees
2013-3-1,44,40,35,36,33,30,93,78,61,30.02,29.99,29.96,10,10,10,10,5,17,0.05,7,,132
2013-3-2,37,34,32,36,32,30,93,88,81,30.21,30.02,29.96,10,8,0,8,1,,0.24,8,Fog,53
2013-3-3,39,36,33,34,31,28,87,84,70,30.44,30.37,30.21,10,10,4,6,1,,0.00,7,Fog,101
2013-3-4,39,34,28,30,28,25,93,79,61,30.43,30.37,30.25,10,10,10,6,2,,0.00,2,,152
2013-3-5,37,32,26,28,24,21,93,78,60,30.25,30.09,29.98,10,10,10,7,3,,0.00,0,,118
2013-3-6,37,30,23,25,22,19,93,74,52,29.98,29.95,29.93,10,10,10,7,2,,0.00,0,,169
2013-3-7,39,31,23,25,22,18,93,73,42,30.10,30.04,29.98,10,10,10,6,2,,0.00,0,,264
2013-3-8,42,33,24,30,25,21,86,75,53,30.17,30.13,30.09,10,10,10,6,2,,0.00,3,,206
2013-3-9,39,36,33,36,32,28,93,84,65,30.27,30.10,29.99,10,7,5,10,3,,0.44,8,Rain-Snow,193
2013-3-10,41,37,33,37,31,28,93,82,65,30.37,30.35,30.27,10,9,6,9,4,,0.01,7,Rain,192
2013-3-11,35,34,33,34,31,30,93,88,81,30.37,30.26,30.05,10,7,1,7,2,,0.12,8,Rain-Snow,284
2013-3-12,39,36,32,34,30,28,93,85,70,30.01,29.79,29.69,10,9,1,7,1,,0.04,7,,102
2013-3-13,32,30,28,30,26,25,93,84,75,29.92,29.86,29.71,10,6,1,5,0,,0.07,7,Snow,80
2013-3-14,35,30,26,28,26,25,93,79,65,29.92,29.84,29.78,10,10,2,7,2,,0.00,7,,95
2013-3-15,33,30,28,28,27,27,93,85,75,29.98,29.89,29.83,10,5,1,12,3,,0.08,8,,271
2013-3-16,33,30,26,28,26,25,93,86,75,30.00,29.98,29.95,10,9,2,5,0,,0.02,6,,263
2013-3-17,33,30,26,28,26,21,93,85,70,30.04,30.01,29.98,10,8,1,7,3,,0.02,7,Snow,238
2013-3-18,35,32,28,30,28,27,93,87,75,30.02,29.97,29.89,10,6,0,8,2,,0.11,7,,210
2013-3-19,39,34,30,30,29,27,93,86,65,29.89,29.69,29.55,10,5,0,9,1,18,0.36,7,,358
2013-3-20,33,28,24,27,21,18,93,71,52,29.77,29.58,29.48,10,10,2,13,4,18,0.04,4,,258
2013-3-21,33,28,24,25,22,18,93,76,60,30.27,30.01,29.78,10,9,2,7,2,,0.01,7,Rain,227
2013-3-22,35,30,24,25,21,18,93,74,52,30.39,30.35,30.28,10,10,10,9,4,,0.00,5,,250
2013-3-23,41,32,23,27,22,19,93,65,45,30.30,30.24,30.16,10,10,10,12,2,,0.00,4,,108
2013-3-24,44,38,33,34,29,25,81,63,46,30.12,30.02,29.90,10,10,10,12,3,18,0.06,8,,138
2013-3-25,42,38,33,37,35,30,93,84,76,29.98,29.88,29.79,10,9,5,10,5,17,0.48,7,Rain,173
2013-3-26,41,36,30,34,29,25,93,78,53,30.17,30.09,29.98,10,10,8,9,2,,0.00,6,,238
2013-3-27,42,34,26,27,24,19,93,69,39,30.18,30.17,30.15,10,10,10,9,3,,0.00,0,,85
2013-3-28,42,34,26,27,24,21,93,69,42,30.21,30.19,30.17,10,10,10,9,3,,0.00,0,,86
2013-3-29,46,36,26,28,25,19,86,63,34,30.35,30.30,30.25,10,10,10,8,3,,0.00,2,,123
2013-3-30,39,36,33,37,34,27,93,87,61,30.40,30.37,30.34,10,8,0,9,2,,0.18,8,Rain,244
2013-3-31,44,38,33,37,35,30,93,87,76,30.38,30.24,30.06,10,7,0,6,2,,0.00,6,,91